GCXO/TFN METAR and TAF weather

Enter ICAO airport designator
Station Type Date Time Source
GCXO METAR 2019/07/20 20:30 UTC NOAA

GCXO 202030Z 30014KT 9999 FEW003 SCT010 18/16 Q1022 NOSIG


Station Type Date Time Source
GCXO Decoded METAR 2019/07/20 20:30 UTC NOAA

Tenerife / Los Rodeos, Spain (GCXO) 28-28N 016-19W 617M
Jul 20, 2019 - 04:30 PM EDT / 2019.07.20 2030 UTC
Wind: from the WNW (300 degrees) at 16 MPH (14 KT):0
Visibility: greater than 7 mile(s):0
Sky conditions: partly cloudy
Temperature: 64 F (18 C)
Dew Point: 60 F (16 C)
Relative Humidity: 88%
Pressure (altimeter): 30.18 in. Hg (1022 hPa)
ob: GCXO 202030Z 30014KT 9999 FEW003 SCT010 18/16 Q1022 NOSIG
cycle: 20

Station Type Date Time Source
GCXO TAF 2019/07/20 21:27 UTC NOAA

TAF GCXO 202000Z 2021/2121 31014KT 9999 BKN010 TX22/2114Z TN16/2105Z
TEMPO 2021/2109 2000 BCFG BKN004 PROB30
TEMPO 2021/2103 1000 BCFG BKN001

Example: see airport list